Airfield :
LOGIN :

Register | Disclaimer

   EN    FR    IT 

 










Legend :    VFR   Marginal VFR   IFR   Intensive IFR   Very Intensive IFR
Visi :
Ceiling :
>= 8 km
>= 3000ft
5 to 8 km
1000 to 3000 ft
1500m to 5 km
500 to 1000 ft
800 to 1500m
200 to 500 ft
< 800m
< 200 ft
Symbols :   Thunderstorms  Fog  Heavy snow  Heavy precipitations  Wind > 20 kt
SIGMETs :     Misc.  Thunderstorms  Icing  Turbulence  Mountain Waves  Volcanic Ashes






- Airport Elevation : 622 ft
- IATA code : BRS


EGGD - Bristol Int.

CURRENT METAR :
  • 311920Z 26012KT 9999 VCSH SCT012 SCT028 15/13 Q1011

EXPIRED METARs :
  • 311850Z 26011KT 9999 VCSH SCT010 SCT030 15/13 Q1011
  • 311820Z 25012KT 9999 SCT012 16/13 Q1011
  • 311750Z 25012KT 9999 SCT014 16/13 Q1010
  • 311720Z AUTO 26011KT 9999 SCT015/// //////TCU 17/13 Q1010
  • 311650Z 25012KT 9999 VCSH SCT016 18/13 Q1011

TAF TAF EGGD
Valid from the 31 at 18:00 until the 01 at 18:00 UTC


311652Z 3118/0118 27012KT 9999 SCT030
PROB40
TEMPO 3118/3122 5000 SHRA BKN010
PROB30
TEMPO 0106/0110 5000 -RA SHRA BKN009
PROB30
TEMPO 0110/0113 4000 +SHRA
ATIS : +44 1275 473 666



MET'MAP, your aeronautical weather chart ! - Copyright ORBIFLY December 2007 - Disclaimer

ORBIFLY MET'MAP TEAM :

Programming & Development : Alexandra Zaïnal
Concept & original design : Baudouin d'Aumeries
Assistance for programming : Marc-Olivier Méhu
Technical & hardware support : Manuel Goepfert

Contact : metmap@orbifly.com




SOURCES & CREDITS :

   NOAA